sensor_id;sensor_type;location;lat;lon;timestamp;P1;durP1;ratioP1;P2;durP2;ratioP2
44850;SDS011;30583;48.714;9.386;2023-03-08T00:01:42;12.90;;;7.30;;
44850;SDS011;30583;48.714;9.386;2023-03-08T00:04:08;15.02;;;7.32;;
44850;SDS011;30583;48.714;9.386;2023-03-08T00:06:34;14.02;;;6.63;;
44850;SDS011;30583;48.714;9.386;2023-03-08T00:09:00;11.52;;;7.07;;
44850;SDS011;30583;48.714;9.386;2023-03-08T00:11:26;12.45;;;6.82;;
44850;SDS011;30583;48.714;9.386;2023-03-08T00:13:52;13.70;;;7.03;;
44850;SDS011;30583;48.714;9.386;2023-03-08T00:16:19;12.05;;;7.03;;
44850;SDS011;30583;48.714;9.386;2023-03-08T00:18:45;13.95;;;7.30;;
44850;SDS011;30583;48.714;9.386;2023-03-08T00:21:12;12.25;;;7.18;;
44850;SDS011;30583;48.714;9.386;2023-03-08T00:23:40;11.00;;;6.35;;
44850;SDS011;30583;48.714;9.386;2023-03-08T00:26:07;12.43;;;7.03;;
44850;SDS011;30583;48.714;9.386;2023-03-08T00:28:33;11.68;;;6.78;;
44850;SDS011;30583;48.714;9.386;2023-03-08T00:31:06;13.00;;;7.85;;
44850;SDS011;30583;48.714;9.386;2023-03-08T00:33:33;12.40;;;6.90;;
44850;SDS011;30583;48.714;9.386;2023-03-08T00:36:08;12.18;;;6.68;;
44850;SDS011;30583;48.714;9.386;2023-03-08T00:38:37;12.40;;;7.22;;
44850;SDS011;30583;48.714;9.386;2023-03-08T00:41:03;12.38;;;7.47;;
44850;SDS011;30583;48.714;9.386;2023-03-08T00:43:28;12.55;;;7.03;;
44850;SDS011;30583;48.714;9.386;2023-03-08T00:45:55;10.15;;;6.32;;
44850;SDS011;30583;48.714;9.386;2023-03-08T00:48:21;12.15;;;7.30;;
44850;SDS011;30583;48.714;9.386;2023-03-08T00:50:47;14.27;;;7.60;;
44850;SDS011;30583;48.714;9.386;2023-03-08T00:53:13;13.05;;;7.53;;
44850;SDS011;30583;48.714;9.386;2023-03-08T00:55:38;12.98;;;7.28;;
44850;SDS011;30583;48.714;9.386;2023-03-08T00:58:10;11.77;;;6.38;;
44850;SDS011;30583;48.714;9.386;2023-03-08T01:00:35;12.10;;;7.05;;
44850;SDS011;30583;48.714;9.386;2023-03-08T01:03:01;11.43;;;6.88;;
44850;SDS011;30583;48.714;9.386;2023-03-08T01:05:28;13.77;;;7.50;;
44850;SDS011;30583;48.714;9.386;2023-03-08T01:07:54;14.05;;;8.57;;
44850;SDS011;30583;48.714;9.386;2023-03-08T01:10:20;17.80;;;10.10;;
44850;SDS011;30583;48.714;9.386;2023-03-08T01:12:45;13.73;;;8.60;;
44850;SDS011;30583;48.714;9.386;2023-03-08T01:15:11;13.70;;;7.78;;
44850;SDS011;30583;48.714;9.386;2023-03-08T01:17:37;13.73;;;8.10;;
44850;SDS011;30583;48.714;9.386;2023-03-08T01:20:02;12.35;;;7.18;;
44850;SDS011;30583;48.714;9.386;2023-03-08T01:22:29;14.63;;;7.28;;
44850;SDS011;30583;48.714;9.386;2023-03-08T01:24:54;11.80;;;7.32;;
44850;SDS011;30583;48.714;9.386;2023-03-08T01:27:20;12.95;;;7.63;;
44850;SDS011;30583;48.714;9.386;2023-03-08T01:29:45;14.30;;;7.57;;
44850;SDS011;30583;48.714;9.386;2023-03-08T01:32:11;14.27;;;7.47;;
44850;SDS011;30583;48.714;9.386;2023-03-08T01:34:37;12.35;;;7.20;;
44850;SDS011;30583;48.714;9.386;2023-03-08T01:37:03;11.95;;;7.07;;
44850;SDS011;30583;48.714;9.386;2023-03-08T01:39:29;14.30;;;8.07;;
44850;SDS011;30583;48.714;9.386;2023-03-08T01:41:55;12.70;;;7.60;;
44850;SDS011;30583;48.714;9.386;2023-03-08T01:44:21;12.57;;;7.72;;
44850;SDS011;30583;48.714;9.386;2023-03-08T01:46:47;15.00;;;7.68;;
44850;SDS011;30583;48.714;9.386;2023-03-08T01:54:46;13.93;;;7.60;;
44850;SDS011;30583;48.714;9.386;2023-03-08T01:57:17;11.40;;;7.25;;
44850;SDS011;30583;48.714;9.386;2023-03-08T01:59:47;14.63;;;7.57;;
44850;SDS011;30583;48.714;9.386;2023-03-08T02:02:16;13.65;;;7.28;;
44850;SDS011;30583;48.714;9.386;2023-03-08T02:04:46;12.75;;;7.30;;
44850;SDS011;30583;48.714;9.386;2023-03-08T02:07:11;13.57;;;7.45;;
44850;SDS011;30583;48.714;9.386;2023-03-08T02:09:37;14.52;;;8.60;;
44850;SDS011;30583;48.714;9.386;2023-03-08T02:12:03;12.82;;;7.85;;
44850;SDS011;30583;48.714;9.386;2023-03-08T02:14:32;12.38;;;7.43;;
44850;SDS011;30583;48.714;9.386;2023-03-08T02:16:58;15.85;;;8.57;;
44850;SDS011;30583;48.714;9.386;2023-03-08T02:19:47;14.77;;;7.70;;
44850;SDS011;30583;48.714;9.386;2023-03-08T02:22:37;13.52;;;7.57;;
44850;SDS011;30583;48.714;9.386;2023-03-08T02:25:08;13.13;;;7.47;;
44850;SDS011;30583;48.714;9.386;2023-03-08T02:27:41;13.63;;;7.78;;
44850;SDS011;30583;48.714;9.386;2023-03-08T02:30:08;11.88;;;7.45;;
44850;SDS011;30583;48.714;9.386;2023-03-08T02:32:36;14.45;;;7.47;;
44850;SDS011;30583;48.714;9.386;2023-03-08T02:35:01;14.25;;;7.68;;
44850;SDS011;30583;48.714;9.386;2023-03-08T02:37:27;13.18;;;7.47;;
44850;SDS011;30583;48.714;9.386;2023-03-08T02:39:53;13.40;;;7.53;;
44850;SDS011;30583;48.714;9.386;2023-03-08T02:42:19;14.40;;;7.60;;
44850;SDS011;30583;48.714;9.386;2023-03-08T02:44:44;13.15;;;7.20;;
44850;SDS011;30583;48.714;9.386;2023-03-08T02:47:10;14.50;;;7.85;;
44850;SDS011;30583;48.714;9.386;2023-03-08T02:49:35;16.88;;;8.05;;
44850;SDS011;30583;48.714;9.386;2023-03-08T02:52:01;13.55;;;7.75;;
44850;SDS011;30583;48.714;9.386;2023-03-08T02:54:27;14.35;;;8.00;;
44850;SDS011;30583;48.714;9.386;2023-03-08T02:56:52;16.05;;;8.07;;
44850;SDS011;30583;48.714;9.386;2023-03-08T02:59:18;15.15;;;8.02;;
44850;SDS011;30583;48.714;9.386;2023-03-08T03:01:43;15.80;;;7.65;;
44850;SDS011;30583;48.714;9.386;2023-03-08T03:04:09;14.18;;;8.25;;
44850;SDS011;30583;48.714;9.386;2023-03-08T03:06:34;15.68;;;8.20;;
44850;SDS011;30583;48.714;9.386;2023-03-08T03:09:00;13.15;;;7.25;;
44850;SDS011;30583;48.714;9.386;2023-03-08T03:11:29;13.98;;;7.70;;
44850;SDS011;30583;48.714;9.386;2023-03-08T03:13:56;14.18;;;7.80;;
44850;SDS011;30583;48.714;9.386;2023-03-08T03:16:22;13.10;;;7.95;;
44850;SDS011;30583;48.714;9.386;2023-03-08T03:18:48;15.15;;;7.88;;
44850;SDS011;30583;48.714;9.386;2023-03-08T03:21:15;13.07;;;7.80;;
44850;SDS011;30583;48.714;9.386;2023-03-08T03:23:40;14.05;;;8.35;;
44850;SDS011;30583;48.714;9.386;2023-03-08T03:26:07;15.25;;;8.65;;
44850;SDS011;30583;48.714;9.386;2023-03-08T03:28:37;16.05;;;9.32;;
44850;SDS011;30583;48.714;9.386;2023-03-08T03:31:06;16.30;;;9.13;;
44850;SDS011;30583;48.714;9.386;2023-03-08T03:33:37;14.80;;;7.90;;
44850;SDS011;30583;48.714;9.386;2023-03-08T03:36:03;14.30;;;8.60;;
44850;SDS011;30583;48.714;9.386;2023-03-08T03:38:30;15.27;;;8.13;;
44850;SDS011;30583;48.714;9.386;2023-03-08T03:41:02;12.80;;;7.47;;
44850;SDS011;30583;48.714;9.386;2023-03-08T03:43:29;16.48;;;8.50;;
44850;SDS011;30583;48.714;9.386;2023-03-08T03:45:56;16.85;;;8.85;;
44850;SDS011;30583;48.714;9.386;2023-03-08T03:48:22;13.13;;;7.28;;
44850;SDS011;30583;48.714;9.386;2023-03-08T03:50:55;13.55;;;7.95;;
44850;SDS011;30583;48.714;9.386;2023-03-08T03:53:22;18.35;;;10.90;;
44850;SDS011;30583;48.714;9.386;2023-03-08T03:55:48;14.23;;;8.98;;
44850;SDS011;30583;48.714;9.386;2023-03-08T03:58:13;13.45;;;7.93;;
44850;SDS011;30583;48.714;9.386;2023-03-08T04:00:39;15.35;;;7.78;;
44850;SDS011;30583;48.714;9.386;2023-03-08T04:03:04;13.05;;;8.20;;
44850;SDS011;30583;48.714;9.386;2023-03-08T04:05:30;13.55;;;7.90;;
44850;SDS011;30583;48.714;9.386;2023-03-08T04:07:55;13.20;;;8.02;;
44850;SDS011;30583;48.714;9.386;2023-03-08T04:10:21;12.68;;;7.43;;
44850;SDS011;30583;48.714;9.386;2023-03-08T04:12:47;13.25;;;7.78;;
44850;SDS011;30583;48.714;9.386;2023-03-08T04:15:13;15.05;;;8.38;;
44850;SDS011;30583;48.714;9.386;2023-03-08T04:17:39;16.20;;;8.68;;
44850;SDS011;30583;48.714;9.386;2023-03-08T04:20:05;15.48;;;8.30;;
44850;SDS011;30583;48.714;9.386;2023-03-08T04:22:31;14.75;;;7.93;;
44850;SDS011;30583;48.714;9.386;2023-03-08T04:24:57;13.07;;;7.65;;
44850;SDS011;30583;48.714;9.386;2023-03-08T04:27:22;14.68;;;7.70;;
44850;SDS011;30583;48.714;9.386;2023-03-08T04:29:48;14.18;;;8.13;;
44850;SDS011;30583;48.714;9.386;2023-03-08T04:32:13;13.60;;;7.55;;
44850;SDS011;30583;48.714;9.386;2023-03-08T04:34:39;15.32;;;8.43;;
44850;SDS011;30583;48.714;9.386;2023-03-08T04:37:07;14.30;;;8.60;;
44850;SDS011;30583;48.714;9.386;2023-03-08T04:39:34;13.90;;;7.75;;
44850;SDS011;30583;48.714;9.386;2023-03-08T04:42:00;16.08;;;8.52;;
44850;SDS011;30583;48.714;9.386;2023-03-08T04:44:25;14.73;;;8.82;;
44850;SDS011;30583;48.714;9.386;2023-03-08T04:46:51;14.30;;;8.60;;
44850;SDS011;30583;48.714;9.386;2023-03-08T04:49:17;14.35;;;8.27;;
44850;SDS011;30583;48.714;9.386;2023-03-08T04:51:43;16.63;;;9.07;;
44850;SDS011;30583;48.714;9.386;2023-03-08T04:54:08;18.90;;;9.63;;
44850;SDS011;30583;48.714;9.386;2023-03-08T04:56:34;18.30;;;8.95;;
44850;SDS011;30583;48.714;9.386;2023-03-08T04:59:00;15.75;;;8.93;;
44850;SDS011;30583;48.714;9.386;2023-03-08T05:01:25;18.17;;;8.77;;
44850;SDS011;30583;48.714;9.386;2023-03-08T05:03:51;14.10;;;8.32;;
44850;SDS011;30583;48.714;9.386;2023-03-08T05:06:20;17.95;;;9.13;;
44850;SDS011;30583;48.714;9.386;2023-03-08T05:08:47;15.23;;;8.88;;
44850;SDS011;30583;48.714;9.386;2023-03-08T05:11:16;15.77;;;8.88;;
44850;SDS011;30583;48.714;9.386;2023-03-08T05:13:43;14.48;;;8.55;;
44850;SDS011;30583;48.714;9.386;2023-03-08T05:16:09;15.05;;;9.10;;
44850;SDS011;30583;48.714;9.386;2023-03-08T05:18:35;14.43;;;8.85;;
44850;SDS011;30583;48.714;9.386;2023-03-08T05:21:05;15.77;;;9.02;;
44850;SDS011;30583;48.714;9.386;2023-03-08T05:23:32;15.55;;;9.20;;
44850;SDS011;30583;48.714;9.386;2023-03-08T05:25:59;16.90;;;9.70;;
44850;SDS011;30583;48.714;9.386;2023-03-08T05:28:28;16.50;;;10.50;;
44850;SDS011;30583;48.714;9.386;2023-03-08T05:31:17;18.35;;;11.63;;
44850;SDS011;30583;48.714;9.386;2023-03-08T05:33:45;15.77;;;9.65;;
44850;SDS011;30583;48.714;9.386;2023-03-08T05:36:13;57.97;;;28.70;;
44850;SDS011;30583;48.714;9.386;2023-03-08T05:38:39;172.40;;;78.05;;
44850;SDS011;30583;48.714;9.386;2023-03-08T05:41:06;111.20;;;46.58;;
44850;SDS011;30583;48.714;9.386;2023-03-08T05:43:33;532.40;;;213.43;;
44850;SDS011;30583;48.714;9.386;2023-03-08T05:46:04;333.75;;;127.35;;
44850;SDS011;30583;48.714;9.386;2023-03-08T05:48:32;176.80;;;70.07;;
44850;SDS011;30583;48.714;9.386;2023-03-08T05:51:02;29.77;;;12.88;;
44850;SDS011;30583;48.714;9.386;2023-03-08T05:53:32;145.98;;;66.75;;
44850;SDS011;30583;48.714;9.386;2023-03-08T05:56:05;106.50;;;50.63;;
44850;SDS011;30583;48.714;9.386;2023-03-08T05:58:41;22.77;;;14.20;;
44850;SDS011;30583;48.714;9.386;2023-03-08T06:01:08;24.60;;;12.48;;
44850;SDS011;30583;48.714;9.386;2023-03-08T06:06:08;61.63;;;30.40;;
44850;SDS011;30583;48.714;9.386;2023-03-08T06:08:33;65.80;;;37.33;;
44850;SDS011;30583;48.714;9.386;2023-03-08T06:10:59;43.22;;;26.95;;
44850;SDS011;30583;48.714;9.386;2023-03-08T06:13:25;80.82;;;62.03;;
44850;SDS011;30583;48.714;9.386;2023-03-08T06:15:57;29.23;;;20.92;;
44850;SDS011;30583;48.714;9.386;2023-03-08T06:18:23;36.30;;;22.70;;
44850;SDS011;30583;48.714;9.386;2023-03-08T06:20:54;67.03;;;46.83;;
44850;SDS011;30583;48.714;9.386;2023-03-08T06:23:28;78.20;;;52.03;;
44850;SDS011;30583;48.714;9.386;2023-03-08T06:25:55;58.70;;;38.67;;
44850;SDS011;30583;48.714;9.386;2023-03-08T06:28:21;23.10;;;13.27;;
44850;SDS011;30583;48.714;9.386;2023-03-08T06:30:47;19.30;;;10.48;;
44850;SDS011;30583;48.714;9.386;2023-03-08T06:33:14;17.15;;;9.65;;
44850;SDS011;30583;48.714;9.386;2023-03-08T06:35:40;237.15;;;80.10;;
44850;SDS011;30583;48.714;9.386;2023-03-08T06:38:06;904.25;;;360.17;;
44850;SDS011;30583;48.714;9.386;2023-03-08T06:40:32;261.65;;;89.43;;
44850;SDS011;30583;48.714;9.386;2023-03-08T06:42:57;654.97;;;213.60;;
44850;SDS011;30583;48.714;9.386;2023-03-08T06:45:24;681.45;;;237.35;;
44850;SDS011;30583;48.714;9.386;2023-03-08T06:47:50;344.98;;;104.75;;
44850;SDS011;30583;48.714;9.386;2023-03-08T06:50:15;383.83;;;113.90;;
44850;SDS011;30583;48.714;9.386;2023-03-08T06:52:41;149.35;;;49.50;;
44850;SDS011;30583;48.714;9.386;2023-03-08T06:55:07;102.53;;;33.92;;
44850;SDS011;30583;48.714;9.386;2023-03-08T06:57:33;275.52;;;94.15;;
44850;SDS011;30583;48.714;9.386;2023-03-08T06:59:59;202.73;;;70.03;;
44850;SDS011;30583;48.714;9.386;2023-03-08T07:02:25;108.85;;;41.38;;
44850;SDS011;30583;48.714;9.386;2023-03-08T07:04:50;152.05;;;58.58;;
44850;SDS011;30583;48.714;9.386;2023-03-08T07:07:16;282.58;;;101.28;;
44850;SDS011;30583;48.714;9.386;2023-03-08T07:09:41;81.43;;;32.72;;
44850;SDS011;30583;48.714;9.386;2023-03-08T07:12:07;88.25;;;35.28;;
44850;SDS011;30583;48.714;9.386;2023-03-08T07:14:33;49.20;;;21.45;;
44850;SDS011;30583;48.714;9.386;2023-03-08T07:16:58;66.95;;;30.05;;
44850;SDS011;30583;48.714;9.386;2023-03-08T07:19:24;61.67;;;25.88;;
44850;SDS011;30583;48.714;9.386;2023-03-08T07:21:50;71.10;;;33.83;;
44850;SDS011;30583;48.714;9.386;2023-03-08T07:24:16;75.82;;;35.88;;
44850;SDS011;30583;48.714;9.386;2023-03-08T07:26:41;30.00;;;15.95;;
44850;SDS011;30583;48.714;9.386;2023-03-08T07:29:07;29.75;;;15.73;;
44850;SDS011;30583;48.714;9.386;2023-03-08T07:31:33;32.70;;;17.15;;
44850;SDS011;30583;48.714;9.386;2023-03-08T07:34:00;33.88;;;18.90;;
44850;SDS011;30583;48.714;9.386;2023-03-08T07:36:29;23.58;;;13.95;;
44850;SDS011;30583;48.714;9.386;2023-03-08T07:38:54;22.35;;;13.52;;
44850;SDS011;30583;48.714;9.386;2023-03-08T07:41:20;27.27;;;15.55;;
44850;SDS011;30583;48.714;9.386;2023-03-08T07:43:45;26.25;;;14.30;;
44850;SDS011;30583;48.714;9.386;2023-03-08T07:46:11;28.65;;;15.15;;
44850;SDS011;30583;48.714;9.386;2023-03-08T07:48:37;22.13;;;13.27;;
44850;SDS011;30583;48.714;9.386;2023-03-08T07:51:06;25.08;;;15.48;;
44850;SDS011;30583;48.714;9.386;2023-03-08T07:53:34;23.35;;;13.55;;
44850;SDS011;30583;48.714;9.386;2023-03-08T07:56:00;29.45;;;16.27;;
44850;SDS011;30583;48.714;9.386;2023-03-08T07:58:27;27.90;;;16.60;;
44850;SDS011;30583;48.714;9.386;2023-03-08T08:00:53;26.83;;;15.65;;
44850;SDS011;30583;48.714;9.386;2023-03-08T08:03:19;23.60;;;13.43;;
44850;SDS011;30583;48.714;9.386;2023-03-08T08:05:45;21.20;;;12.65;;
44850;SDS011;30583;48.714;9.386;2023-03-08T08:08:11;25.45;;;14.73;;
44850;SDS011;30583;48.714;9.386;2023-03-08T08:10:38;111.38;;;59.13;;
44850;SDS011;30583;48.714;9.386;2023-03-08T08:13:04;56.20;;;31.20;;
44850;SDS011;30583;48.714;9.386;2023-03-08T08:15:30;24.25;;;14.52;;
44850;SDS011;30583;48.714;9.386;2023-03-08T08:17:57;24.88;;;13.77;;
44850;SDS011;30583;48.714;9.386;2023-03-08T08:20:23;21.45;;;12.93;;
44850;SDS011;30583;48.714;9.386;2023-03-08T08:22:50;25.88;;;13.80;;
44850;SDS011;30583;48.714;9.386;2023-03-08T08:25:17;23.13;;;13.30;;
44850;SDS011;30583;48.714;9.386;2023-03-08T08:27:43;29.20;;;15.55;;
44850;SDS011;30583;48.714;9.386;2023-03-08T08:30:10;46.25;;;25.73;;
44850;SDS011;30583;48.714;9.386;2023-03-08T08:32:37;38.30;;;21.27;;
44850;SDS011;30583;48.714;9.386;2023-03-08T08:35:03;27.02;;;15.55;;
44850;SDS011;30583;48.714;9.386;2023-03-08T08:37:29;26.40;;;13.45;;
44850;SDS011;30583;48.714;9.386;2023-03-08T08:39:56;23.75;;;13.13;;
44850;SDS011;30583;48.714;9.386;2023-03-08T08:42:22;22.92;;;13.57;;
44850;SDS011;30583;48.714;9.386;2023-03-08T08:44:47;22.80;;;13.25;;
44850;SDS011;30583;48.714;9.386;2023-03-08T08:47:13;27.77;;;13.98;;
44850;SDS011;30583;48.714;9.386;2023-03-08T08:49:39;25.02;;;13.32;;
44850;SDS011;30583;48.714;9.386;2023-03-08T08:52:05;23.88;;;13.77;;
44850;SDS011;30583;48.714;9.386;2023-03-08T08:54:31;22.13;;;13.00;;
44850;SDS011;30583;48.714;9.386;2023-03-08T08:56:58;19.02;;;11.82;;
44850;SDS011;30583;48.714;9.386;2023-03-08T08:59:24;23.08;;;13.23;;
44850;SDS011;30583;48.714;9.386;2023-03-08T09:01:49;20.42;;;12.65;;
44850;SDS011;30583;48.714;9.386;2023-03-08T09:04:15;24.92;;;16.10;;
44850;SDS011;30583;48.714;9.386;2023-03-08T09:06:41;27.67;;;15.73;;
44850;SDS011;30583;48.714;9.386;2023-03-08T09:09:07;22.83;;;14.98;;
44850;SDS011;30583;48.714;9.386;2023-03-08T09:11:33;24.85;;;15.02;;
44850;SDS011;30583;48.714;9.386;2023-03-08T09:13:59;23.95;;;14.55;;
44850;SDS011;30583;48.714;9.386;2023-03-08T09:18:58;29.92;;;19.33;;
44850;SDS011;30583;48.714;9.386;2023-03-08T09:21:26;31.88;;;18.92;;
44850;SDS011;30583;48.714;9.386;2023-03-08T09:23:53;31.27;;;16.58;;
44850;SDS011;30583;48.714;9.386;2023-03-08T09:26:19;27.48;;;17.23;;
44850;SDS011;30583;48.714;9.386;2023-03-08T09:28:45;24.55;;;15.10;;
44850;SDS011;30583;48.714;9.386;2023-03-08T09:31:12;25.65;;;14.35;;
44850;SDS011;30583;48.714;9.386;2023-03-08T09:33:47;21.90;;;15.02;;
44850;SDS011;30583;48.714;9.386;2023-03-08T09:36:15;22.73;;;14.80;;
44850;SDS011;30583;48.714;9.386;2023-03-08T09:38:41;26.00;;;15.23;;
44850;SDS011;30583;48.714;9.386;2023-03-08T09:46:38;19.63;;;12.93;;
44850;SDS011;30583;48.714;9.386;2023-03-08T09:49:14;24.85;;;14.27;;
44850;SDS011;30583;48.714;9.386;2023-03-08T09:51:44;24.17;;;14.93;;
44850;SDS011;30583;48.714;9.386;2023-03-08T09:54:12;21.98;;;14.75;;
44850;SDS011;30583;48.714;9.386;2023-03-08T09:56:47;23.55;;;14.27;;
44850;SDS011;30583;48.714;9.386;2023-03-08T09:59:27;22.42;;;14.02;;
44850;SDS011;30583;48.714;9.386;2023-03-08T10:07:21;22.98;;;14.50;;
44850;SDS011;30583;48.714;9.386;2023-03-08T10:10:00;21.70;;;13.00;;
44850;SDS011;30583;48.714;9.386;2023-03-08T10:14:57;23.67;;;15.18;;
44850;SDS011;30583;48.714;9.386;2023-03-08T10:17:41;24.63;;;15.50;;
44850;SDS011;30583;48.714;9.386;2023-03-08T10:20:27;48.50;;;36.83;;
44850;SDS011;30583;48.714;9.386;2023-03-08T10:22:59;20.15;;;11.40;;
44850;SDS011;30583;48.714;9.386;2023-03-08T10:25:31;18.17;;;10.98;;
44850;SDS011;30583;48.714;9.386;2023-03-08T10:27:58;17.52;;;9.50;;
44850;SDS011;30583;48.714;9.386;2023-03-08T10:30:36;16.90;;;10.07;;
44850;SDS011;30583;48.714;9.386;2023-03-08T10:33:09;15.68;;;9.80;;
44850;SDS011;30583;48.714;9.386;2023-03-08T10:35:37;15.20;;;8.68;;
44850;SDS011;30583;48.714;9.386;2023-03-08T10:38:16;18.15;;;9.93;;
44850;SDS011;30583;48.714;9.386;2023-03-08T10:40:42;14.57;;;8.90;;
44850;SDS011;30583;48.714;9.386;2023-03-08T10:43:13;17.23;;;9.88;;
44850;SDS011;30583;48.714;9.386;2023-03-08T10:45:56;17.60;;;8.80;;
44850;SDS011;30583;48.714;9.386;2023-03-08T10:48:30;18.17;;;9.23;;
44850;SDS011;30583;48.714;9.386;2023-03-08T10:50:59;15.40;;;8.70;;
44850;SDS011;30583;48.714;9.386;2023-03-08T10:53:27;13.10;;;8.30;;
44850;SDS011;30583;48.714;9.386;2023-03-08T10:55:54;24.20;;;10.02;;
44850;SDS011;30583;48.714;9.386;2023-03-08T10:58:33;14.93;;;9.07;;
44850;SDS011;30583;48.714;9.386;2023-03-08T11:01:04;15.82;;;9.38;;
44850;SDS011;30583;48.714;9.386;2023-03-08T11:03:31;16.90;;;9.27;;
44850;SDS011;30583;48.714;9.386;2023-03-08T11:08:32;19.80;;;9.93;;
44850;SDS011;30583;48.714;9.386;2023-03-08T11:13:32;12.57;;;8.25;;
44850;SDS011;30583;48.714;9.386;2023-03-08T11:24:18;9.40;;;5.40;;
44850;SDS011;30583;48.714;9.386;2023-03-08T11:35:46;4.68;;;1.80;;
44850;SDS011;30583;48.714;9.386;2023-03-08T11:38:21;3.00;;;1.23;;
44850;SDS011;30583;48.714;9.386;2023-03-08T11:41:01;3.75;;;1.85;;
44850;SDS011;30583;48.714;9.386;2023-03-08T11:51:28;2.90;;;1.20;;
44850;SDS011;30583;48.714;9.386;2023-03-08T11:57:09;2.50;;;1.20;;
44850;SDS011;30583;48.714;9.386;2023-03-08T12:02:28;2.28;;;0.82;;
44850;SDS011;30583;48.714;9.386;2023-03-08T12:07:35;3.67;;;1.15;;
44850;SDS011;30583;48.714;9.386;2023-03-08T12:12:44;6.60;;;2.63;;
44850;SDS011;30583;48.714;9.386;2023-03-08T12:15:34;4.38;;;1.10;;
44850;SDS011;30583;48.714;9.386;2023-03-08T12:18:20;5.05;;;2.60;;
44850;SDS011;30583;48.714;9.386;2023-03-08T12:24:10;1.45;;;0.70;;
44850;SDS011;30583;48.714;9.386;2023-03-08T12:29:53;1.67;;;0.82;;
44850;SDS011;30583;48.714;9.386;2023-03-08T12:32:24;3.13;;;0.70;;
44850;SDS011;30583;48.714;9.386;2023-03-08T12:35:01;0.55;;;0.50;;
44850;SDS011;30583;48.714;9.386;2023-03-08T12:37:29;3.55;;;1.52;;
44850;SDS011;30583;48.714;9.386;2023-03-08T12:40:06;4.38;;;1.20;;
44850;SDS011;30583;48.714;9.386;2023-03-08T12:42:51;2.13;;;1.20;;
44850;SDS011;30583;48.714;9.386;2023-03-08T12:45:27;3.67;;;1.20;;
44850;SDS011;30583;48.714;9.386;2023-03-08T12:50:29;2.00;;;1.10;;
44850;SDS011;30583;48.714;9.386;2023-03-08T12:56:03;1.58;;;0.63;;
44850;SDS011;30583;48.714;9.386;2023-03-08T12:58:30;1.23;;;0.90;;
44850;SDS011;30583;48.714;9.386;2023-03-08T13:01:01;1.27;;;0.65;;
44850;SDS011;30583;48.714;9.386;2023-03-08T13:03:38;0.98;;;0.40;;
44850;SDS011;30583;48.714;9.386;2023-03-08T13:06:23;2.92;;;0.68;;
44850;SDS011;30583;48.714;9.386;2023-03-08T13:09:06;1.00;;;0.60;;
44850;SDS011;30583;48.714;9.386;2023-03-08T13:11:38;1.08;;;0.50;;
44850;SDS011;30583;48.714;9.386;2023-03-08T13:20:15;1.67;;;0.65;;
44850;SDS011;30583;48.714;9.386;2023-03-08T13:25:53;2.40;;;0.70;;
44850;SDS011;30583;48.714;9.386;2023-03-08T13:28:33;2.80;;;1.13;;
44850;SDS011;30583;48.714;9.386;2023-03-08T13:31:02;1.42;;;1.00;;
44850;SDS011;30583;48.714;9.386;2023-03-08T13:33:45;1.52;;;0.60;;
44850;SDS011;30583;48.714;9.386;2023-03-08T13:36:20;1.15;;;0.65;;
44850;SDS011;30583;48.714;9.386;2023-03-08T13:38:58;1.85;;;0.50;;
44850;SDS011;30583;48.714;9.386;2023-03-08T13:41:30;3.08;;;0.65;;
44850;SDS011;30583;48.714;9.386;2023-03-08T13:44:06;1.42;;;0.60;;
44850;SDS011;30583;48.714;9.386;2023-03-08T13:46:55;2.60;;;0.65;;
44850;SDS011;30583;48.714;9.386;2023-03-08T13:51:55;0.85;;;0.55;;
44850;SDS011;30583;48.714;9.386;2023-03-08T13:54:28;1.42;;;0.50;;
44850;SDS011;30583;48.714;9.386;2023-03-08T13:56:56;0.73;;;0.40;;
44850;SDS011;30583;48.714;9.386;2023-03-08T13:59:28;2.10;;;1.08;;
44850;SDS011;30583;48.714;9.386;2023-03-08T14:01:54;1.52;;;0.55;;
44850;SDS011;30583;48.714;9.386;2023-03-08T14:04:26;0.73;;;0.38;;
44850;SDS011;30583;48.714;9.386;2023-03-08T14:09:24;0.98;;;0.60;;
44850;SDS011;30583;48.714;9.386;2023-03-08T14:12:00;0.80;;;0.50;;
44850;SDS011;30583;48.714;9.386;2023-03-08T14:16:56;0.65;;;0.43;;
44850;SDS011;30583;48.714;9.386;2023-03-08T14:19:26;1.80;;;0.35;;
44850;SDS011;30583;48.714;9.386;2023-03-08T14:21:58;0.90;;;0.70;;
44850;SDS011;30583;48.714;9.386;2023-03-08T14:24:33;0.88;;;0.45;;
44850;SDS011;30583;48.714;9.386;2023-03-08T14:27:04;0.60;;;0.50;;
44850;SDS011;30583;48.714;9.386;2023-03-08T14:29:39;0.57;;;0.35;;
44850;SDS011;30583;48.714;9.386;2023-03-08T14:34:39;1.00;;;0.40;;
44850;SDS011;30583;48.714;9.386;2023-03-08T14:39:36;1.85;;;0.40;;
44850;SDS011;30583;48.714;9.386;2023-03-08T14:44:41;1.13;;;0.50;;
44850;SDS011;30583;48.714;9.386;2023-03-08T14:47:26;1.52;;;0.30;;
44850;SDS011;30583;48.714;9.386;2023-03-08T14:49:59;1.70;;;1.10;;
44850;SDS011;30583;48.714;9.386;2023-03-08T14:52:47;3.33;;;1.00;;
44850;SDS011;30583;48.714;9.386;2023-03-08T14:55:26;4.45;;;0.80;;
44850;SDS011;30583;48.714;9.386;2023-03-08T14:57:54;0.65;;;0.40;;
44850;SDS011;30583;48.714;9.386;2023-03-08T15:00:22;0.70;;;0.47;;
44850;SDS011;30583;48.714;9.386;2023-03-08T15:02:49;1.95;;;0.38;;
44850;SDS011;30583;48.714;9.386;2023-03-08T15:05:16;1.20;;;0.70;;
44850;SDS011;30583;48.714;9.386;2023-03-08T15:07:43;3.72;;;1.20;;
44850;SDS011;30583;48.714;9.386;2023-03-08T15:10:20;1.83;;;0.80;;
44850;SDS011;30583;48.714;9.386;2023-03-08T15:12:55;1.75;;;0.50;;
44850;SDS011;30583;48.714;9.386;2023-03-08T15:15:21;3.33;;;0.45;;
44850;SDS011;30583;48.714;9.386;2023-03-08T15:17:46;0.93;;;0.50;;
44850;SDS011;30583;48.714;9.386;2023-03-08T15:20:12;1.80;;;0.70;;
44850;SDS011;30583;48.714;9.386;2023-03-08T15:22:40;0.95;;;0.50;;
44850;SDS011;30583;48.714;9.386;2023-03-08T15:25:13;0.93;;;0.50;;
44850;SDS011;30583;48.714;9.386;2023-03-08T15:27:57;1.02;;;0.70;;
44850;SDS011;30583;48.714;9.386;2023-03-08T15:30:24;1.73;;;0.60;;
44850;SDS011;30583;48.714;9.386;2023-03-08T15:32:51;3.47;;;1.00;;
44850;SDS011;30583;48.714;9.386;2023-03-08T15:35:17;0.90;;;0.60;;
44850;SDS011;30583;48.714;9.386;2023-03-08T15:37:43;2.28;;;0.60;;
44850;SDS011;30583;48.714;9.386;2023-03-08T15:40:14;0.98;;;0.63;;
44850;SDS011;30583;48.714;9.386;2023-03-08T15:42:41;2.17;;;0.57;;
44850;SDS011;30583;48.714;9.386;2023-03-08T15:45:08;1.73;;;0.70;;
44850;SDS011;30583;48.714;9.386;2023-03-08T15:47:35;0.77;;;0.52;;
44850;SDS011;30583;48.714;9.386;2023-03-08T15:50:01;2.85;;;0.60;;
44850;SDS011;30583;48.714;9.386;2023-03-08T15:52:28;0.63;;;0.40;;
44850;SDS011;30583;48.714;9.386;2023-03-08T15:54:53;1.50;;;0.55;;
44850;SDS011;30583;48.714;9.386;2023-03-08T15:57:19;2.53;;;1.10;;
44850;SDS011;30583;48.714;9.386;2023-03-08T15:59:44;2.10;;;0.60;;
44850;SDS011;30583;48.714;9.386;2023-03-08T16:02:14;0.85;;;0.32;;
44850;SDS011;30583;48.714;9.386;2023-03-08T16:04:41;2.03;;;0.70;;
44850;SDS011;30583;48.714;9.386;2023-03-08T16:07:10;2.10;;;0.73;;
44850;SDS011;30583;48.714;9.386;2023-03-08T16:09:36;0.77;;;0.50;;
44850;SDS011;30583;48.714;9.386;2023-03-08T16:12:02;2.25;;;0.40;;
44850;SDS011;30583;48.714;9.386;2023-03-08T16:14:28;1.75;;;0.50;;
44850;SDS011;30583;48.714;9.386;2023-03-08T16:16:53;2.17;;;1.05;;
44850;SDS011;30583;48.714;9.386;2023-03-08T16:19:19;1.70;;;0.65;;
44850;SDS011;30583;48.714;9.386;2023-03-08T16:21:45;1.33;;;0.50;;
44850;SDS011;30583;48.714;9.386;2023-03-08T16:24:10;1.75;;;0.50;;